Time;durP1;ratioP1;P1;durP2;ratioP2;P2;SDS_P1;SDS_P2;PMS_P1;PMS_P2;Temp;Humidity;BMP_temperature;BMP_pressure;BME280_temperature;BME280_humidity;BME280_pressure;Samples;Min_cycle;Max_cycle;Signal;HPM_P1;HPM_P2
2022/08/26 00:01:28;;;;;;;38.55;27.13;;;22.10;99.90;;;;;;5119385;27;20031;-66
2022/08/26 00:03:53;;;;;;;37.28;27.15;;;22.00;99.90;;;;;;5128559;27;20041;-68
2022/08/26 00:06:19;;;;;;;31.30;26.15;;;22.00;99.90;;;;;;5144761;27;20066;-67
2022/08/26 00:08:45;;;;;;;35.17;25.23;;;21.90;99.90;;;;;;5136449;27;20135;-67
2022/08/26 00:11:11;;;;;;;34.08;25.30;;;22.00;99.90;;;;;;5127350;27;20500;-68
2022/08/26 00:13:38;;;;;;;32.70;24.35;;;21.90;99.90;;;;;;5115949;27;21060;-66
2022/08/26 00:16:06;;;;;;;32.58;24.13;;;21.90;99.90;;;;;;5121984;27;20121;-66
2022/08/26 00:18:32;;;;;;;;;;;21.90;99.90;;;;;;5125396;27;20067;-67
2022/08/26 00:20:58;;;;;;;32.90;24.55;;;21.80;99.90;;;;;;5137892;27;19946;-66
2022/08/26 00:23:24;;;;;;;31.90;23.88;;;21.80;99.90;;;;;;5129218;27;20046;-67
2022/08/26 00:25:51;;;;;;;33.58;25.55;;;21.70;99.90;;;;;;5131210;27;20039;-65
2022/08/26 00:28:16;;;;;;;37.00;23.77;;;21.80;99.90;;;;;;5119665;27;20546;-67
2022/08/26 00:30:42;;;;;;;35.65;24.02;;;21.70;99.90;;;;;;5129006;27;20120;-66
2022/08/26 00:33:08;;;;;;;37.10;23.15;;;21.70;99.90;;;;;;5118213;27;20098;-66
2022/08/26 00:35:34;;;;;;;36.42;23.75;;;21.70;99.90;;;;;;5101351;27;20101;-68
2022/08/26 00:38:01;;;;;;;34.25;22.38;;;21.70;99.90;;;;;;5115166;27;20482;-67
2022/08/26 00:40:33;;;;;;;36.20;23.60;;;21.70;99.90;;;;;;5117798;27;20722;-68
2022/08/26 00:42:59;;;;;;;40.70;22.70;;;21.70;99.90;;;;;;5121195;27;20039;-66
2022/08/26 00:45:26;;;;;;;33.10;21.63;;;21.70;99.90;;;;;;5121714;27;20084;-68
2022/08/26 00:48:02;;;;;;;32.10;20.55;;;21.70;99.90;;;;;;5123140;27;20494;-67
2022/08/26 00:50:34;;;;;;;33.65;21.33;;;21.60;99.90;;;;;;5122477;27;20121;-68
2022/08/26 00:53:05;;;;;;;39.85;22.38;;;21.60;99.90;;;;;;5131147;27;20474;-67
2022/08/26 00:55:37;;;;;;;34.03;20.25;;;21.60;99.90;;;;;;5119020;27;20047;-66
2022/08/26 00:58:05;;;;;;;34.63;21.40;;;21.60;99.90;;;;;;5128139;27;20125;-65
2022/08/26 01:00:32;;;;;;;35.42;20.67;;;21.50;99.90;;;;;;5122949;27;20035;-68
2022/08/26 01:03:00;;;;;;;39.70;21.95;;;21.60;99.90;;;;;;5121198;27;20054;-67
2022/08/26 01:05:27;;;;;;;35.42;22.13;;;21.50;99.90;;;;;;5125457;27;20501;-66
2022/08/26 01:07:53;;;;;;;31.90;21.00;;;21.50;99.90;;;;;;5127333;27;20066;-68
2022/08/26 01:10:23;;;;;;;38.15;22.70;;;21.50;99.90;;;;;;5128249;27;20116;-68
2022/08/26 01:12:54;;;;;;;31.55;20.25;;;21.50;99.90;;;;;;5123325;27;20070;-68
2022/08/26 01:15:24;;;;;;;39.15;22.65;;;21.50;99.90;;;;;;5121440;27;20082;-69
2022/08/26 01:17:50;;;;;;;40.22;22.33;;;21.50;99.90;;;;;;5133464;27;20048;-67
2022/08/26 01:20:28;;;;;;;33.95;21.80;;;21.40;99.90;;;;;;5120300;27;20039;-67
2022/08/26 01:23:00;;;;;;;34.53;21.40;;;21.40;99.90;;;;;;5121183;27;20074;-67
2022/08/26 01:25:30;;;;;;;36.25;22.15;;;21.40;99.90;;;;;;5119681;27;20054;-68
2022/08/26 01:27:58;;;;;;;36.95;23.80;;;21.40;99.90;;;;;;5130691;27;20047;-66
2022/08/26 01:30:27;;;;;;;36.28;22.55;;;21.40;99.90;;;;;;5120395;27;20042;-70
2022/08/26 01:32:55;;;;;;;35.90;22.80;;;21.40;99.90;;;;;;5125776;27;20075;-67
2022/08/26 01:35:21;;;;;;;43.97;22.13;;;21.40;99.90;;;;;;5122334;27;20046;-68
2022/08/26 01:37:51;;;;;;;40.92;23.52;;;21.30;99.90;;;;;;5163022;22;20048;-79
2022/08/26 01:40:26;;;;;;;37.15;22.92;;;21.30;99.90;;;;;;5123536;28;20058;-81
2022/08/26 01:42:53;;;;;;;39.58;22.45;;;21.30;99.90;;;;;;5120694;27;20462;-81
2022/08/26 01:45:24;;;;;;;39.97;23.08;;;21.20;99.90;;;;;;5118414;28;20403;-80
2022/08/26 01:47:52;;;;;;;41.85;22.95;;;21.20;99.90;;;;;;5096827;28;20044;-79
2022/08/26 01:50:26;;;;;;;43.03;23.33;;;21.30;99.90;;;;;;5101562;28;20389;-82
2022/08/26 01:52:53;;;;;;;44.67;23.05;;;21.20;99.90;;;;;;5119963;28;20040;-80
2022/08/26 01:55:20;;;;;;;;;;;21.20;99.90;;;;;;5117657;28;20052;-82
2022/08/26 01:57:49;;;;;;;44.50;23.55;;;21.20;99.90;;;;;;5097919;28;19919;-78
2022/08/26 02:00:15;;;;;;;39.88;21.55;;;21.20;99.90;;;;;;5113275;28;20478;-80
2022/08/26 02:02:46;;;;;;;40.50;23.58;;;21.10;99.90;;;;;;5110213;28;20040;-80
2022/08/26 02:05:20;;;;;;;43.70;22.63;;;21.20;99.90;;;;;;5114298;28;20500;-81
2022/08/26 02:07:47;;;;;;;42.45;23.00;;;21.20;99.90;;;;;;5111050;28;20334;-78
2022/08/26 02:10:14;;;;;;;40.90;23.23;;;21.10;99.90;;;;;;5114467;28;20162;-79
2022/08/26 02:12:40;;;;;;;45.15;22.70;;;21.20;99.90;;;;;;5099036;28;20135;-80
2022/08/26 02:15:11;;;;;;;38.42;21.58;;;21.20;99.90;;;;;;5097793;28;20084;-80
2022/08/26 02:17:42;;;;;;;33.20;21.60;;;21.20;99.90;;;;;;5094430;28;20051;-77
2022/08/26 02:20:10;;;;;;;37.67;22.23;;;21.10;99.90;;;;;;5110108;28;20043;-80
2022/08/26 02:22:37;;;;;;;41.22;22.05;;;21.20;99.90;;;;;;5113084;28;20080;-81
2022/08/26 02:25:29;;;;;;;37.33;21.63;;;21.20;99.90;;;;;;5110879;28;20127;-80
2022/08/26 02:27:55;;;;;;;35.53;21.05;;;21.10;99.90;;;;;;5112816;28;20051;-81
2022/08/26 02:30:25;;;;;;;47.00;22.52;;;21.10;99.90;;;;;;5112911;28;20043;-80
2022/08/26 02:32:51;;;;;;;48.72;22.25;;;21.20;99.90;;;;;;5114915;28;20127;-80
2022/08/26 02:35:19;;;;;;;42.60;22.05;;;21.10;99.90;;;;;;5104939;28;20101;-79
2022/08/26 02:37:46;;;;;;;43.50;23.17;;;21.10;99.90;;;;;;5105315;28;20130;-81
2022/08/26 02:40:13;;;;;;;39.20;22.45;;;21.10;99.90;;;;;;5132179;28;20108;-80
2022/08/26 02:42:39;;;;;;;40.15;24.15;;;21.10;99.90;;;;;;5129318;28;20040;-80
2022/08/26 02:45:06;;;;;;;42.42;21.27;;;21.10;99.90;;;;;;5086362;28;20810;-78
2022/08/26 02:47:32;;;;;;;40.88;21.08;;;21.10;99.90;;;;;;5116071;28;20043;-79
2022/08/26 02:49:58;;;;;;;41.67;21.45;;;21.00;99.90;;;;;;5115807;28;20411;-77
2022/08/26 02:52:24;;;;;;;43.55;21.92;;;21.00;99.90;;;;;;5122644;28;20123;-80
2022/08/26 02:54:51;;;;;;;42.05;19.83;;;21.00;99.90;;;;;;5106465;28;20065;-82
2022/08/26 02:57:17;;;;;;;42.38;21.48;;;21.00;99.90;;;;;;5114622;28;20093;-78
2022/08/26 02:59:43;;;;;;;44.90;22.47;;;21.00;99.90;;;;;;5115217;28;20054;-78
2022/08/26 03:02:09;;;;;;;43.67;20.83;;;21.00;99.90;;;;;;5107616;28;20040;-79
2022/08/26 03:04:37;;;;;;;45.05;21.58;;;21.00;99.90;;;;;;5108505;28;20063;-78
2022/08/26 03:07:03;;;;;;;;;;;21.00;99.90;;;;;;5109264;28;20067;-79
2022/08/26 03:09:29;;;;;;;43.60;22.00;;;21.00;99.90;;;;;;5112943;28;19920;-80
2022/08/26 03:11:56;;;;;;;44.83;20.33;;;20.90;99.90;;;;;;5105030;28;20131;-79
2022/08/26 03:14:22;;;;;;;42.53;19.65;;;20.90;99.90;;;;;;5113183;28;20048;-80
2022/08/26 03:16:50;;;;;;;42.95;20.90;;;21.00;99.90;;;;;;5096716;28;20051;-80
2022/08/26 03:19:17;;;;;;;39.60;18.95;;;21.00;99.90;;;;;;5119669;28;20051;-80
2022/08/26 03:21:43;;;;;;;47.83;18.48;;;21.00;99.90;;;;;;5121658;28;20020;-80
2022/08/26 03:24:10;;;;;;;39.95;18.52;;;21.00;99.90;;;;;;5105385;28;20047;-80
2022/08/26 03:26:36;;;;;;;35.72;17.20;;;21.00;99.90;;;;;;5125104;28;20032;-79
2022/08/26 03:31:46;;;;;;;34.55;17.55;;;21.00;99.90;;;;;;5118873;27;20465;-79
2022/08/26 03:34:12;;;;;;;40.88;17.70;;;21.00;99.90;;;;;;5122805;28;20036;-81
2022/08/26 03:36:38;;;;;;;40.45;17.80;;;21.00;99.90;;;;;;5112371;28;20051;-80
2022/08/26 03:39:04;;;;;;;41.60;18.40;;;21.00;99.90;;;;;;5110891;28;20048;-79
2022/08/26 03:41:32;;;;;;;38.22;18.42;;;21.00;99.90;;;;;;5111722;27;20175;-81
2022/08/26 03:43:57;;;;;;;31.60;17.17;;;21.00;99.90;;;;;;5104167;28;20050;-79
2022/08/26 03:46:23;;;;;;;35.72;18.05;;;21.00;99.90;;;;;;5112922;27;20036;-80
2022/08/26 03:48:48;;;;;;;43.83;18.23;;;21.00;99.90;;;;;;5107464;28;20040;-80
2022/08/26 03:51:17;;;;;;;31.50;17.70;;;21.00;99.90;;;;;;5083538;28;20048;-82
2022/08/26 03:53:43;;;;;;;35.38;15.40;;;20.90;99.90;;;;;;5110591;28;20707;-80
2022/08/26 03:56:09;;;;;;;32.92;15.38;;;20.90;99.90;;;;;;5115983;28;20123;-81
2022/08/26 03:58:36;;;;;;;30.25;15.30;;;20.90;99.90;;;;;;5112664;27;20036;-78
2022/08/26 04:01:03;;;;;;;34.45;15.80;;;20.90;99.90;;;;;;5110522;27;20133;-81
2022/08/26 04:06:13;;;;;;;35.67;15.43;;;20.90;99.90;;;;;;5115863;28;20062;-83
2022/08/26 04:08:39;;;;;;;33.22;15.27;;;20.80;99.90;;;;;;5115098;28;21791;-81
2022/08/26 04:11:05;;;;;;;31.27;14.70;;;20.80;99.90;;;;;;5111435;27;20469;-83
2022/08/26 04:13:31;;;;;;;33.85;14.85;;;20.80;99.90;;;;;;5111660;27;20061;-83
2022/08/26 04:15:59;;;;;;;31.00;13.73;;;20.80;99.90;;;;;;5111068;28;20039;-81
2022/08/26 04:18:26;;;;;;;;;;;20.90;99.90;;;;;;5114456;27;20126;-80
2022/08/26 04:20:53;;;;;;;28.30;12.88;;;20.80;99.90;;;;;;5114726;27;19923;-81
2022/08/26 04:23:19;;;;;;;28.25;13.07;;;20.80;99.90;;;;;;5114282;28;20047;-84
2022/08/26 04:25:45;;;;;;;30.10;12.93;;;20.70;99.90;;;;;;5112996;27;20079;-79
2022/08/26 04:28:13;;;;;;;26.13;13.23;;;20.70;99.90;;;;;;5115856;27;20081;-82
2022/08/26 04:30:39;;;;;;;33.15;13.77;;;20.70;99.90;;;;;;5118066;27;20048;-82
2022/08/26 04:33:06;;;;;;;24.63;12.40;;;20.70;99.90;;;;;;5109466;28;20130;-83
2022/08/26 04:35:33;;;;;;;25.70;12.40;;;20.60;99.90;;;;;;5110319;28;20047;-81
2022/08/26 04:37:58;;;;;;;28.95;13.60;;;20.70;99.90;;;;;;5112786;28;20056;-79
2022/08/26 04:40:26;;;;;;;28.50;13.70;;;20.70;99.90;;;;;;5112064;28;20412;-79
2022/08/26 04:42:52;;;;;;;26.88;13.35;;;20.70;99.90;;;;;;5110769;27;20565;-82
2022/08/26 04:45:18;;;;;;;32.42;14.95;;;20.70;99.90;;;;;;5114815;27;20079;-82
2022/08/26 04:47:45;;;;;;;27.35;13.02;;;20.70;99.90;;;;;;5099193;28;20060;-81
2022/08/26 04:50:11;;;;;;;35.05;16.13;;;20.70;99.90;;;;;;5111309;28;20051;-79
2022/08/26 04:52:37;;;;;;;44.60;18.00;;;20.70;99.90;;;;;;5110987;28;20089;-81
2022/08/26 04:55:03;;;;;;;28.00;16.77;;;20.60;99.90;;;;;;5115763;27;20499;-80
2022/08/26 04:57:29;;;;;;;30.80;16.58;;;20.60;99.90;;;;;;5110967;28;20082;-81
2022/08/26 04:59:55;;;;;;;36.42;16.40;;;20.60;99.90;;;;;;5114025;27;20081;-82
2022/08/26 05:02:21;;;;;;;33.70;15.45;;;20.60;99.90;;;;;;5107857;28;20039;-78
2022/08/26 05:04:46;;;;;;;39.28;15.52;;;20.60;99.90;;;;;;5111920;27;20059;-80
2022/08/26 05:07:12;;;;;;;29.25;14.55;;;20.60;99.90;;;;;;5106346;28;20043;-79
2022/08/26 05:09:39;;;;;;;31.13;15.30;;;20.60;99.90;;;;;;5104547;28;20056;-78
2022/08/26 05:12:05;;;;;;;31.35;14.90;;;20.60;99.90;;;;;;5112593;27;20476;-80
2022/08/26 05:14:31;;;;;;;34.78;13.77;;;20.60;99.90;;;;;;5121044;27;20075;-81
2022/08/26 05:16:57;;;;;;;38.22;13.27;;;20.60;99.90;;;;;;5119823;28;20035;-82
2022/08/26 05:19:23;;;;;;;30.23;13.75;;;20.60;99.90;;;;;;5106141;28;20081;-80
2022/08/26 05:21:49;;;;;;;30.20;14.23;;;20.50;99.90;;;;;;5112698;28;20075;-78
2022/08/26 05:24:16;;;;;;;29.52;13.68;;;20.50;99.90;;;;;;5104155;28;20063;-80
2022/08/26 05:26:42;;;;;;;27.05;13.27;;;20.60;99.90;;;;;;5114625;28;20120;-79
2022/08/26 05:29:08;;;;;;;28.70;13.95;;;20.50;99.90;;;;;;5111180;28;20088;-81
2022/08/26 05:31:35;;;;;;;39.67;14.55;;;20.50;99.90;;;;;;5116142;28;20083;-80
2022/08/26 05:34:03;;;;;;;34.08;13.82;;;20.60;99.90;;;;;;5109186;28;20067;-80
2022/08/26 05:36:30;;;;;;;35.10;14.40;;;20.60;99.90;;;;;;5108018;28;20122;-80
2022/08/26 05:38:56;;;;;;;33.90;13.93;;;20.60;99.90;;;;;;5112667;28;20039;-81
2022/08/26 05:41:27;;;;;;;32.35;14.10;;;20.60;99.90;;;;;;5108053;28;20098;-80
2022/08/26 05:43:54;;;;;;;28.60;13.18;;;20.60;99.90;;;;;;5112854;27;20457;-79
2022/08/26 05:46:20;;;;;;;28.20;13.20;;;20.70;99.90;;;;;;5113038;28;20067;-79
2022/08/26 05:48:46;;;;;;;36.60;12.48;;;20.60;99.90;;;;;;5113033;28;20067;-80
2022/08/26 05:51:12;;;;;;;26.65;12.10;;;20.60;99.90;;;;;;5112216;27;20047;-81
2022/08/26 05:53:39;;;;;;;27.25;11.27;;;20.70;99.90;;;;;;5113575;28;20040;-81
2022/08/26 05:56:06;;;;;;;28.30;12.43;;;20.70;99.90;;;;;;5121939;28;20476;-80
2022/08/26 05:58:33;;;;;;;29.50;11.50;;;20.70;99.90;;;;;;5111165;28;20039;-80
2022/08/26 06:01:06;;;;;;;22.98;10.25;;;20.70;99.90;;;;;;5129552;28;20039;-80
2022/08/26 06:03:34;;;;;;;26.85;10.23;;;20.80;99.90;;;;;;5116135;28;20050;-79
2022/08/26 06:06:08;;;;;;;29.63;10.68;;;20.80;99.90;;;;;;5113243;28;20460;-78
2022/08/26 06:08:35;;;;;;;23.98;10.25;;;20.80;99.90;;;;;;5109049;28;20115;-79
2022/08/26 06:11:03;;;;;;;25.13;10.73;;;20.80;99.90;;;;;;5112847;28;20051;-80
2022/08/26 06:13:30;;;;;;;23.52;10.55;;;20.80;99.90;;;;;;5112301;28;20047;-80
2022/08/26 06:15:57;;;;;;;26.70;9.95;;;20.90;99.90;;;;;;5102311;28;20039;-79
2022/08/26 06:18:35;;;;;;;27.63;9.65;;;20.90;99.90;;;;;;5112627;28;20047;-77
2022/08/26 06:21:15;;;;;;;25.55;9.88;;;20.80;99.90;;;;;;5113166;28;20403;-80
2022/08/26 06:26:26;;;;;;;23.65;9.82;;;20.90;99.90;;;;;;5115862;28;20094;-79
2022/08/26 06:28:54;;;;;;;35.75;10.60;;;20.90;99.90;;;;;;5122481;28;20043;-77
2022/08/26 06:31:21;;;;;;;25.13;10.27;;;20.90;99.90;;;;;;5111671;28;20419;-77
2022/08/26 06:33:47;;;;;;;28.85;9.00;;;21.00;99.90;;;;;;5111293;28;20039;-75
2022/08/26 06:36:18;;;;;;;32.40;9.88;;;21.00;99.90;;;;;;5110483;28;20050;-77
2022/08/26 06:38:45;;;;;;;34.10;10.73;;;21.00;99.90;;;;;;5066609;28;20091;-77
2022/08/26 06:41:11;;;;;;;27.60;9.40;;;21.10;99.90;;;;;;5071800;28;20044;-76
2022/08/26 06:43:37;;;;;;;29.15;9.98;;;21.10;99.90;;;;;;5072059;28;20419;-76
2022/08/26 06:46:06;;;;;;;29.38;10.45;;;21.10;99.90;;;;;;5071686;28;20067;-79
2022/08/26 06:48:32;;;;;;;25.15;10.05;;;21.10;99.90;;;;;;5070059;28;20044;-78
2022/08/26 06:51:13;;;;;;;24.25;10.68;;;21.10;99.90;;;;;;5067334;28;20040;-77
2022/08/26 06:53:41;;;;;;;29.15;11.38;;;21.10;99.90;;;;;;5072527;28;20036;-79
2022/08/26 06:56:09;;;;;;;24.60;10.07;;;21.10;99.90;;;;;;5074823;28;20044;-78
2022/08/26 06:58:36;;;;;;;28.40;10.55;;;21.10;99.90;;;;;;5079489;28;20036;-77
2022/08/26 07:01:03;;;;;;;19.52;10.27;;;21.00;99.90;;;;;;5065359;28;20099;-77
2022/08/26 07:03:29;;;;;;;23.90;9.93;;;21.00;99.90;;;;;;5063280;28;20550;-80
2022/08/26 07:06:01;;;;;;;22.88;10.50;;;21.00;99.90;;;;;;5072163;28;20040;-77
2022/08/26 07:08:27;;;;;;;23.17;10.10;;;21.00;99.90;;;;;;5063989;28;20520;-77
2022/08/26 07:10:52;;;;;;;24.98;9.50;;;21.10;99.90;;;;;;5066139;28;20044;-77
2022/08/26 07:13:18;;;;;;;23.98;10.10;;;21.10;99.90;;;;;;5070615;28;20426;-77
2022/08/26 07:15:44;;;;;;;24.90;8.77;;;21.10;99.90;;;;;;5074743;28;20047;-79
2022/08/26 07:18:09;;;;;;;28.77;10.27;;;21.10;99.90;;;;;;5069617;28;20076;-78
2022/08/26 07:20:39;;;;;;;25.83;10.00;;;21.10;99.90;;;;;;5078185;28;20048;-77
2022/08/26 07:23:08;;;;;;;18.80;8.82;;;21.10;99.90;;;;;;5078198;28;20044;-76
2022/08/26 07:25:40;;;;;;;15.20;8.02;;;21.10;99.90;;;;;;5076137;28;20048;-78
2022/08/26 07:28:06;;;;;;;19.80;7.32;;;21.10;99.90;;;;;;5081048;28;20066;-80
2022/08/26 07:30:33;;;;;;;17.90;7.03;;;21.20;99.90;;;;;;5068114;28;20045;-79
2022/08/26 07:32:58;;;;;;;22.17;7.00;;;21.20;99.90;;;;;;5064984;28;20080;-79
2022/08/26 07:35:25;;;;;;;24.45;7.90;;;21.10;99.90;;;;;;5072425;28;20049;-80
2022/08/26 07:37:51;;;;;;;15.70;6.60;;;21.10;99.90;;;;;;5110499;28;20044;-79
2022/08/26 07:40:17;;;;;;;21.88;6.55;;;21.10;99.90;;;;;;5122645;28;20048;-82
2022/08/26 07:42:43;;;;;;;22.38;7.72;;;21.20;99.90;;;;;;5109568;28;20044;-80
2022/08/26 07:45:09;;;;;;;17.23;7.40;;;21.20;99.90;;;;;;5118517;27;20050;-80
2022/08/26 07:47:35;;;;;;;20.45;8.00;;;21.20;99.90;;;;;;5110498;27;20180;-79
2022/08/26 07:50:01;;;;;;;22.40;9.10;;;21.20;99.90;;;;;;5103905;28;20035;-79
2022/08/26 07:52:28;;;;;;;17.60;7.93;;;21.30;99.90;;;;;;5112659;28;20109;-80
2022/08/26 07:54:59;;;;;;;15.23;7.25;;;21.20;99.90;;;;;;5112574;28;20044;-81
2022/08/26 07:57:26;;;;;;;20.10;6.80;;;21.30;99.90;;;;;;5109755;28;20035;-79
2022/08/26 07:59:53;;;;;;;17.17;6.63;;;21.30;99.90;;;;;;5105609;28;20055;-80
2022/08/26 08:02:18;;;;;;;15.10;5.65;;;21.30;99.90;;;;;;5109798;27;20039;-80
2022/08/26 08:04:44;;;;;;;12.77;5.25;;;21.30;99.90;;;;;;5115418;28;20058;-80
2022/08/26 08:07:10;;;;;;;15.57;5.13;;;21.20;99.90;;;;;;5115772;28;20114;-79
2022/08/26 08:09:36;;;;;;;12.35;4.47;;;21.30;99.90;;;;;;5113537;27;20059;-80
2022/08/26 08:12:02;;;;;;;14.05;3.67;;;21.20;99.90;;;;;;5111165;28;20127;-81
2022/08/26 08:14:28;;;;;;;15.07;4.00;;;21.30;99.90;;;;;;5116405;28;20043;-80
2022/08/26 08:16:54;;;;;;;11.27;3.35;;;21.30;99.90;;;;;;5120785;27;20485;-81
2022/08/26 08:19:19;;;;;;;14.07;3.35;;;21.30;99.90;;;;;;5115621;28;20102;-78
2022/08/26 08:21:45;;;;;;;17.65;3.72;;;21.30;99.90;;;;;;5114404;28;20551;-82
2022/08/26 08:24:11;;;;;;;11.88;3.88;;;21.30;99.90;;;;;;5114888;27;20534;-80
2022/08/26 08:26:38;;;;;;;16.17;3.28;;;21.20;99.90;;;;;;5110737;27;20075;-78
2022/08/26 08:29:04;;;;;;;14.57;3.50;;;21.30;99.90;;;;;;5105085;28;20052;-78
2022/08/26 08:31:31;;;;;;;17.77;3.72;;;21.30;99.90;;;;;;5104204;27;20040;-80
2022/08/26 08:33:57;;;;;;;25.42;4.25;;;21.30;99.90;;;;;;5109069;28;20042;-78
2022/08/26 08:36:23;;;;;;;20.52;4.13;;;21.40;99.90;;;;;;5111358;28;20032;-78
2022/08/26 08:38:49;;;;;;;16.25;3.67;;;21.40;99.90;;;;;;5105693;28;20056;-80
2022/08/26 08:41:45;;;;;;;12.65;2.78;;;21.40;99.90;;;;;;5100892;28;20106;-79
2022/08/26 08:44:22;;;;;;;16.17;3.15;;;21.40;99.90;;;;;;5109586;28;20031;-80
2022/08/26 08:46:55;;;;;;;12.55;3.50;;;21.30;99.90;;;;;;5106010;28;20480;-80
2022/08/26 08:49:22;;;;;;;11.52;3.08;;;21.30;99.90;;;;;;5109922;28;20079;-83
2022/08/26 08:51:54;;;;;;;15.65;3.42;;;21.40;99.90;;;;;;5107817;28;20052;-81
2022/08/26 08:54:20;;;;;;;17.40;3.53;;;21.40;99.90;;;;;;5113916;28;20043;-82
2022/08/26 08:57:09;;;;;;;18.50;3.20;;;21.40;99.90;;;;;;5116315;28;20052;-83
2022/08/26 08:59:40;;;;;;;14.30;3.00;;;21.30;99.90;;;;;;5120285;28;20047;-83
2022/08/26 09:02:30;;;;;;;13.10;3.25;;;21.30;99.90;;;;;;5104935;28;20044;-78
2022/08/26 09:05:14;;;;;;;15.35;3.55;;;21.30;99.90;;;;;;5117685;28;20050;-84
2022/08/26 09:08:03;;;;;;;15.63;3.08;;;21.30;99.90;;;;;;5103003;28;20059;-82
2022/08/26 09:10:39;;;;;;;14.50;3.10;;;21.20;99.90;;;;;;5115862;28;20412;-81
2022/08/26 09:13:08;;;;;;;12.35;3.33;;;21.20;99.90;;;;;;5112201;28;20043;-81
2022/08/26 09:16:02;;;;;;;15.85;2.88;;;21.20;99.90;;;;;;5123562;28;20422;-81
2022/08/26 09:18:41;;;;;;;20.25;3.85;;;21.10;99.90;;;;;;5116423;28;20051;-81
2022/08/26 09:21:09;;;;;;;11.77;2.92;;;21.10;99.90;;;;;;5115307;28;20095;-82
2022/08/26 09:23:38;;;;;;;11.95;3.13;;;21.00;99.90;;;;;;5110994;28;20519;-79
2022/08/26 09:26:18;;;;;;;12.00;3.00;;;21.00;99.90;;;;;;5119322;28;20066;-82
2022/08/26 09:28:54;;;;;;;14.73;3.42;;;21.00;99.90;;;;;;5109531;28;20039;-81
2022/08/26 09:31:34;;;;;;;10.20;2.80;;;20.90;99.90;;;;;;5121358;28;20047;-80
2022/08/26 09:34:25;;;;;;;21.63;3.00;;;20.90;99.90;;;;;;5117355;28;20621;-82
2022/08/26 09:36:58;;;;;;;8.23;2.90;;;20.90;99.90;;;;;;5065311;28;1098077;-78
2022/08/26 09:39:27;;;;;;;13.85;2.97;;;20.90;99.90;;;;;;5107846;28;20293;-78
2022/08/26 09:42:10;;;;;;;15.65;3.70;;;20.90;99.90;;;;;;5109228;28;20055;-79
2022/08/26 09:44:59;;;;;;;9.73;3.33;;;20.90;99.90;;;;;;5111314;28;20110;-77
2022/08/26 09:47:36;;;;;;;14.82;3.13;;;20.90;99.90;;;;;;5102621;28;20071;-80
2022/08/26 09:50:28;;;;;;;11.70;2.80;;;21.00;99.90;;;;;;5111043;28;20088;-79
2022/08/26 09:53:31;;;;;;;13.38;3.22;;;21.20;99.90;;;;;;5111146;28;20365;-81
2022/08/26 09:56:16;;;;;;;13.73;3.10;;;21.30;99.90;;;;;;5050675;28;20048;-79
2022/08/26 09:58:45;;;;;;;9.88;2.65;;;21.30;99.90;;;;;;5108099;28;20529;-80
2022/08/26 10:01:35;;;;;;;14.05;3.83;;;21.20;99.90;;;;;;5110090;28;20487;-80
2022/08/26 10:04:19;;;;;;;;;;;21.30;99.90;;;;;;5115480;27;20053;-80
2022/08/26 10:07:04;;;;;;;9.30;2.72;;;21.30;99.90;;;;;;5094901;28;20383;-78
2022/08/26 10:09:34;;;;;;;17.13;3.28;;;21.30;99.90;;;;;;5110247;28;20043;-78
2022/08/26 10:12:07;;;;;;;12.45;2.88;;;21.30;99.90;;;;;;5113696;28;20047;-81
2022/08/26 10:14:50;;;;;;;17.60;3.60;;;21.20;99.90;;;;;;5111386;28;20047;-78
2022/08/26 10:17:22;;;;;;;14.88;3.40;;;21.20;99.90;;;;;;5101365;28;20110;-81
2022/08/26 10:19:51;;;;;;;13.88;2.90;;;21.10;99.90;;;;;;5106120;28;20663;-80
2022/08/26 10:22:19;;;;;;;16.20;3.13;;;21.20;99.90;;;;;;5123683;28;20032;-79
2022/08/26 10:24:49;;;;;;;13.20;3.15;;;21.20;99.90;;;;;;5114025;28;20040;-78
2022/08/26 10:27:26;;;;;;;13.63;3.47;;;21.10;99.90;;;;;;5111962;28;20039;-80
2022/08/26 10:29:59;;;;;;;12.57;3.10;;;21.10;99.90;;;;;;5110534;28;20048;-79
2022/08/26 10:32:41;;;;;;;11.23;3.30;;;21.00;99.90;;;;;;5097037;28;20036;-79
2022/08/26 10:35:11;;;;;;;13.10;3.72;;;21.10;99.90;;;;;;5104806;28;20050;-81
2022/08/26 10:37:42;;;;;;;11.18;2.78;;;21.00;99.90;;;;;;5107923;28;20074;-80
2022/08/26 10:40:45;;;;;;;7.47;2.58;;;21.10;99.90;;;;;;5114227;28;20039;-80
2022/08/26 10:43:21;;;;;;;12.07;3.40;;;21.10;99.90;;;;;;5099059;28;20083;-80
2022/08/26 10:45:51;;;;;;;12.68;3.10;;;21.10;99.90;;;;;;5113320;28;20081;-82
2022/08/26 10:48:24;;;;;;;12.98;2.95;;;21.10;99.90;;;;;;5114354;28;20098;-80
2022/08/26 10:50:50;;;;;;;6.82;2.78;;;21.10;99.90;;;;;;5107966;27;20130;-80
2022/08/26 10:53:29;;;;;;;15.40;3.55;;;21.20;99.90;;;;;;5113031;27;20129;-80
2022/08/26 10:56:36;;;;;;;10.75;2.60;;;21.20;99.90;;;;;;5115372;28;20039;-78
2022/08/26 10:59:08;;;;;;;11.98;3.10;;;21.30;99.90;;;;;;5119010;28;20055;-79
2022/08/26 11:01:40;;;;;;;10.20;2.92;;;21.30;99.90;;;;;;5113762;27;20039;-79
2022/08/26 11:04:31;;;;;;;11.40;3.00;;;21.30;99.90;;;;;;5118088;28;20046;-78
2022/08/26 11:07:39;;;;;;;7.20;2.80;;;21.30;99.90;;;;;;5108390;28;20101;-78
2022/08/26 11:10:20;;;;;;;8.90;3.20;;;21.20;99.90;;;;;;5104007;28;20051;-78
2022/08/26 11:13:02;;;;;;;9.98;3.00;;;21.20;99.90;;;;;;5117676;28;20042;-79
2022/08/26 11:15:28;;;;;;;9.48;3.40;;;21.20;99.90;;;;;;5119743;28;20492;-80
2022/08/26 11:18:06;;;;;;;10.85;2.92;;;21.20;99.90;;;;;;5116943;28;20105;-81
2022/08/26 11:20:46;;;;;;;9.82;2.95;;;21.20;99.90;;;;;;5111309;28;20507;-80
2022/08/26 11:23:12;;;;;;;14.82;3.30;;;21.30;99.90;;;;;;5105612;28;20040;-79
2022/08/26 11:25:57;;;;;;;13.63;3.33;;;21.30;99.90;;;;;;5105317;28;20155;-81
2022/08/26 11:28:36;;;;;;;12.00;3.35;;;21.30;99.90;;;;;;5111094;28;20438;-78
2022/08/26 11:31:06;;;;;;;15.88;3.33;;;21.30;99.90;;;;;;5107084;28;20056;-79
2022/08/26 11:33:56;;;;;;;14.80;3.47;;;21.40;99.90;;;;;;5105095;28;20089;-80
2022/08/26 11:36:50;;;;;;;10.65;2.70;;;21.40;99.90;;;;;;5109409;28;20040;-80
2022/08/26 11:39:29;;;;;;;14.80;3.28;;;21.30;99.90;;;;;;5111934;28;20039;-81
2022/08/26 11:42:03;;;;;;;14.88;3.25;;;21.30;99.90;;;;;;5110168;28;20043;-80
2022/08/26 11:44:42;;;;;;;10.95;2.42;;;21.20;99.90;;;;;;5097264;28;20101;-80
2022/08/26 11:47:10;;;;;;;7.40;2.40;;;21.20;99.90;;;;;;5105346;28;20052;-80
2022/08/26 11:49:36;;;;;;;13.02;2.83;;;21.10;99.90;;;;;;5104247;28;20118;-78
2022/08/26 11:52:19;;;;;;;10.48;2.80;;;21.10;99.90;;;;;;5103120;28;20294;-82
2022/08/26 11:55:05;;;;;;;16.00;3.22;;;21.00;99.90;;;;;;5107617;28;20036;-78
2022/08/26 11:57:34;;;;;;;9.90;2.65;;;20.90;99.90;;;;;;5109243;28;20418;-80
2022/08/26 12:00:01;;;;;;;9.07;2.97;;;20.80;99.90;;;;;;5103438;28;20079;-81
2022/08/26 12:02:27;;;;;;;15.63;3.35;;;20.70;99.90;;;;;;5105011;28;20040;-80
2022/08/26 12:04:54;;;;;;;8.00;2.95;;;20.70;99.90;;;;;;5107147;28;20088;-78
2022/08/26 12:07:28;;;;;;;11.57;3.00;;;20.50;99.90;;;;;;5112240;28;20087;-80
2022/08/26 12:09:59;;;;;;;11.80;2.75;;;20.60;99.90;;;;;;5110545;28;20080;-78
2022/08/26 12:12:31;;;;;;;11.07;3.65;;;20.50;99.90;;;;;;5096884;28;20040;-79
2022/08/26 12:15:09;;;;;;;11.23;3.28;;;20.60;99.90;;;;;;5108827;28;20040;-77
2022/08/26 12:17:35;;;;;;;14.65;3.30;;;20.60;99.90;;;;;;5111457;28;20044;-78
2022/08/26 12:20:01;;;;;;;11.30;3.13;;;20.60;99.90;;;;;;5115346;28;20028;-78
2022/08/26 12:22:30;;;;;;;12.32;3.00;;;20.60;99.90;;;;;;5117486;27;20032;-80
2022/08/26 12:25:03;;;;;;;13.73;3.30;;;20.70;99.90;;;;;;5113961;27;20051;-79
2022/08/26 12:27:38;;;;;;;11.68;3.47;;;20.60;99.90;;;;;;5116882;27;20043;-79
2022/08/26 12:30:12;;;;;;;9.50;2.78;;;20.60;99.90;;;;;;5119798;28;20047;-77
2022/08/26 12:32:40;;;;;;;14.80;3.22;;;20.50;99.90;;;;;;5132210;28;20044;-78
2022/08/26 12:35:11;;;;;;;11.70;3.58;;;20.50;99.90;;;;;;5132390;28;20047;-79
2022/08/26 12:37:41;;;;;;;12.23;2.63;;;20.40;99.90;;;;;;5130376;28;20410;-82
2022/08/26 12:40:42;;;;;;;6.90;2.30;;;20.40;99.90;;;;;;5125032;28;20122;-77
2022/08/26 12:43:10;;;;;;;11.80;2.38;;;20.40;99.90;;;;;;5122898;28;20071;-77
2022/08/26 12:45:41;;;;;;;15.32;3.08;;;20.40;99.90;;;;;;5119861;28;20032;-76
2022/08/26 12:48:20;;;;;;;7.40;2.33;;;20.40;99.90;;;;;;5119555;28;20488;-78
2022/08/26 12:50:49;;;;;;;13.70;2.63;;;20.50;99.90;;;;;;5116323;28;20038;-77
2022/08/26 12:53:21;;;;;;;8.70;2.30;;;20.60;99.90;;;;;;5093996;28;20496;-80
2022/08/26 12:56:03;;;;;;;13.45;2.85;;;20.60;99.90;;;;;;5113227;28;20051;-80
2022/08/26 12:58:30;;;;;;;13.02;2.78;;;20.60;99.90;;;;;;5124153;28;20101;-78